Pacific Dawn — 2AGH7 — position and weather

sailwx.info

Track history (hours):
 
Tides and Currents Weather Stations Pressure Air Temp Water Temp Dewpoint Dewpoint Depression Visibility Wind Speed Wind Dir Waves Ship Positions

Pacific Dawn

Last reported at 2017-Mar-28 07:33 UTC. Time now 2017-Mar-28 08:10 UTC.
Position S 27°20' E 153°12'.

Length 245 m; draft 8.3 m.

Type: Passenger vessel. MMSI: 235059368.

Date/timePositionNaut miles runAvg speedWind from/ knotsBaromVisibWave heightAir tempDewpointWater temp
2017-Mar-28 07:33S 27°20' E 153°12'9 8.6
2017-Mar-28 06:34S 27°27' E 153°06'2 1.8
2017-Mar-28 05:33S 27°26' E 153°04'0 0.0
2017-Mar-28 04:30S 27°26' E 153°04'0 0.0
2017-Mar-28 03:15S 27°26' E 153°04'0 0.0
2017-Mar-28 00:33S 27°26' E 153°04'0 0.0
2017-Mar-27 23:30S 27°26' E 153°04'0 0.0
2017-Mar-27 22:33S 27°26' E 153°04'0 0.0
2017-Mar-27 21:27S 27°26' E 153°04'0 0.0
2017-Mar-27 20:33S 27°26' E 153°04'0 0.1
2017-Mar-27 19:33S 27°27' E 153°04'6 5.5
2017-Mar-27 18:33S 27°23' E 153°09'1312.9
2017-Mar-27 17:33S 27°14' E 153°20'1515.0
2017-Mar-27 16:34S 27°00' E 153°14'1813.2
2017-Mar-27 15:13S 26°43' E 153°11'711.0
2017-Mar-27 14:33S 26°42' E 153°20'1612.1
2017-Mar-27 13:13S 26°43' E 153°37'33 0.9
2017-Mar-25 22:24S 27°02' E 154°08'2110.6
2017-Mar-25 20:25S 26°50' E 153°49'910.8
2017-Mar-25 19:33S 26°45' E 153°39'1210.7
2017-Mar-25 18:25S 26°42' E 153°26'1011.0
2017-Mar-25 17:33S 26°41' E 153°16'1010.2
2017-Mar-25 16:33S 26°50' E 153°09'1716.9
2017-Mar-25 15:34S 27°04' E 153°18'1414.4
2017-Mar-25 14:33S 27°18' E 153°13'10 9.8
2017-Mar-25 13:34S 27°26' E 153°07'3 2.5
2017-Mar-25 12:30S 27°26' E 153°04'0 0.0
2017-Mar-25 11:21S 27°26' E 153°04'0 0.0
2017-Mar-25 10:33S 27°26' E 153°04'0 0.0
2017-Mar-25 09:33S 27°26' E 153°04'0 0.0
2017-Mar-25 08:30S 27°26' E 153°04'0 0.0
2017-Mar-25 06:33S 27°26' E 153°04'0 0.0
2017-Mar-25 05:30S 27°26' E 153°04'2 1.9
2017-Mar-25 04:34S 27°27' E 153°06'8 7.7
2017-Mar-25 03:33S 27°21' E 153°11'1514.7
2017-Mar-25 02:33S 27°09' E 153°21'1615.6
2017-Mar-25 01:33S 26°55' E 153°12'1312.3
2017-Mar-25 00:29S 26°42' E 153°13'74119.5
2017-Mar-23 10:22S 22°38' E 166°04'1619.8
2017-Mar-23 09:33S 22°33' E 166°20'1515.3
2017-Mar-23 08:33S 22°27' E 166°35'  
2017-Mar-19 10:33S 22°23' E 166°41'1616.0
2017-Mar-19 09:33S 22°18' E 166°25'1 1.0
2017-Mar-19 08:34S 22°17' E 166°24'1212.1
2017-Mar-19 07:34S 22°23' E 166°36'1111.1
2017-Mar-19 06:34S 22°16' E 166°26'0 0.2
2017-Mar-19 05:31S 22°16' E 166°26'0 0.0
2017-Mar-19 04:31S 22°16' E 166°26'0 0.0
2017-Mar-19 03:31S 22°16' E 166°26'0 0.0
2017-Mar-19 02:31S 22°16' E 166°26'0 0.0
2017-Mar-19 01:31S 22°16' E 166°26'0 0.0
2017-Mar-19 00:31S 22°16' E 166°26'0 0.0
2017-Mar-18 23:31S 22°16' E 166°26'0 0.0
2017-Mar-18 22:28S 22°16' E 166°26'0 0.0
2017-Mar-18 21:31S 22°16' E 166°26'0 0.1
2017-Mar-18 20:34S 22°16' E 166°26'1212.1
2017-Mar-18 19:34S 22°22' E 166°15'  
Track history (hours):
 
Tides and Currents Weather Stations Pressure Air Temp Water Temp Dewpoint Dewpoint Depression Visibility Wind Speed Wind Dir Waves Ship Positions

Pacific Dawn

Last reported at 2017-Mar-28 07:33 UTC. Time now 2017-Mar-28 08:10 UTC.
Position S 27°20' E 153°12'.

Length 245 m; draft 8.3 m.

Type: Passenger vessel. MMSI: 235059368.

Date/timePositionNaut miles runAvg speedWind from/ knotsBaromVisibWave heightAir tempDewpointWater temp
2017-Mar-28 07:33S 27°20' E 153°12'9 8.6
2017-Mar-28 06:34S 27°27' E 153°06'2 1.8
2017-Mar-28 05:33S 27°26' E 153°04'0 0.0
2017-Mar-28 04:30S 27°26' E 153°04'0 0.0
2017-Mar-28 03:15S 27°26' E 153°04'0 0.0
2017-Mar-28 00:33S 27°26' E 153°04'0 0.0
2017-Mar-27 23:30S 27°26' E 153°04'0 0.0
2017-Mar-27 22:33S 27°26' E 153°04'0 0.0
2017-Mar-27 21:27S 27°26' E 153°04'0 0.0
2017-Mar-27 20:33S 27°26' E 153°04'0 0.1
2017-Mar-27 19:33S 27°27' E 153°04'6 5.5
2017-Mar-27 18:33S 27°23' E 153°09'1312.9
2017-Mar-27 17:33S 27°14' E 153°20'1515.0
2017-Mar-27 16:34S 27°00' E 153°14'1813.2
2017-Mar-27 15:13S 26°43' E 153°11'711.0
2017-Mar-27 14:33S 26°42' E 153°20'1612.1
2017-Mar-27 13:13S 26°43' E 153°37'33 0.9
2017-Mar-25 22:24S 27°02' E 154°08'2110.6
2017-Mar-25 20:25S 26°50' E 153°49'910.8
2017-Mar-25 19:33S 26°45' E 153°39'1210.7
2017-Mar-25 18:25S 26°42' E 153°26'1011.0
2017-Mar-25 17:33S 26°41' E 153°16'1010.2
2017-Mar-25 16:33S 26°50' E 153°09'1716.9
2017-Mar-25 15:34S 27°04' E 153°18'1414.4
2017-Mar-25 14:33S 27°18' E 153°13'10 9.8
2017-Mar-25 13:34S 27°26' E 153°07'3 2.5
2017-Mar-25 12:30S 27°26' E 153°04'0 0.0
2017-Mar-25 11:21S 27°26' E 153°04'0 0.0
2017-Mar-25 10:33S 27°26' E 153°04'0 0.0
2017-Mar-25 09:33S 27°26' E 153°04'0 0.0
2017-Mar-25 08:30S 27°26' E 153°04'0 0.0
2017-Mar-25 06:33S 27°26' E 153°04'0 0.0
2017-Mar-25 05:30S 27°26' E 153°04'2 1.9
2017-Mar-25 04:34S 27°27' E 153°06'8 7.7
2017-Mar-25 03:33S 27°21' E 153°11'1514.7
2017-Mar-25 02:33S 27°09' E 153°21'1615.6
2017-Mar-25 01:33S 26°55' E 153°12'1312.3
2017-Mar-25 00:29S 26°42' E 153°13'74119.5
2017-Mar-23 10:22S 22°38' E 166°04'1619.8
2017-Mar-23 09:33S 22°33' E 166°20'1515.3
2017-Mar-23 08:33S 22°27' E 166°35'  
2017-Mar-19 10:33S 22°23' E 166°41'1616.0
2017-Mar-19 09:33S 22°18' E 166°25'1 1.0
2017-Mar-19 08:34S 22°17' E 166°24'1212.1
2017-Mar-19 07:34S 22°23' E 166°36'1111.1
2017-Mar-19 06:34S 22°16' E 166°26'0 0.2
2017-Mar-19 05:31S 22°16' E 166°26'0 0.0
2017-Mar-19 04:31S 22°16' E 166°26'0 0.0
2017-Mar-19 03:31S 22°16' E 166°26'0 0.0
2017-Mar-19 02:31S 22°16' E 166°26'0 0.0
2017-Mar-19 01:31S 22°16' E 166°26'0 0.0
2017-Mar-19 00:31S 22°16' E 166°26'0 0.0
2017-Mar-18 23:31S 22°16' E 166°26'0 0.0
2017-Mar-18 22:28S 22°16' E 166°26'0 0.0
2017-Mar-18 21:31S 22°16' E 166°26'0 0.1
2017-Mar-18 20:34S 22°16' E 166°26'1212.1
2017-Mar-18 19:34S 22°22' E 166°15'  

Dump ship's entire track history